createdAt,value
2023-03-02T08:04:17.317Z,29.20
2023-03-02T08:06:45.193Z,25.45
2023-03-02T08:09:14.620Z,31.50
2023-03-02T08:11:44.807Z,28.38
2023-03-02T08:14:12.710Z,35.30
2023-03-02T08:16:40.784Z,26.92
2023-03-02T08:19:08.740Z,27.00
2023-03-02T08:21:37.913Z,26.05
2023-03-02T08:24:06.586Z,28.50
2023-03-02T08:26:34.552Z,29.50
2023-03-02T08:29:02.513Z,28.20
2023-03-02T08:31:30.572Z,27.85
2023-03-02T08:33:59.418Z,28.33
2023-03-02T08:36:27.327Z,24.90
2023-03-02T08:38:56.478Z,28.95
2023-03-02T08:41:26.062Z,27.90
2023-03-02T08:43:54.404Z,26.38
2023-03-02T08:46:22.855Z,26.17
2023-03-02T08:48:51.527Z,27.00
2023-03-02T08:51:22.670Z,24.65
2023-03-02T08:53:54.664Z,25.52
2023-03-02T08:56:26.033Z,24.38
2023-03-02T08:58:55.239Z,19.23
2023-03-02T09:01:25.128Z,30.70
2023-03-02T09:03:53.413Z,25.73
2023-03-02T09:06:21.444Z,25.85
2023-03-02T09:08:50.038Z,23.92
2023-03-02T09:11:18.414Z,24.85
2023-03-02T09:13:47.677Z,28.25
2023-03-02T09:16:15.955Z,27.55
2023-03-02T09:18:43.797Z,30.50
2023-03-02T09:21:11.696Z,22.92
2023-03-02T09:23:39.887Z,33.63
2023-03-02T09:26:08.045Z,25.15
2023-03-02T09:28:36.959Z,28.02
2023-03-02T09:31:08.741Z,24.80
2023-03-02T09:33:37.216Z,26.25
2023-03-02T09:36:07.672Z,27.17
2023-03-02T09:38:35.606Z,24.73
2023-03-02T09:41:29.800Z,28.85
2023-03-02T09:44:10.464Z,25.48
2023-03-02T09:46:46.180Z,28.05
2023-03-02T09:49:24.029Z,31.23
2023-03-02T09:52:03.400Z,26.70
2023-03-02T09:54:32.280Z,22.55
2023-03-02T09:57:00.841Z,22.10
2023-03-02T09:59:32.068Z,28.05
2023-03-02T10:02:06.183Z,27.85
2023-03-02T10:04:42.207Z,24.40
2023-03-02T10:07:13.845Z,24.48
2023-03-02T10:09:42.737Z,28.35
2023-03-02T10:12:39.685Z,26.05
2023-03-02T10:15:15.421Z,28.50
2023-03-02T10:17:55.693Z,22.10
2023-03-02T10:20:34.170Z,22.15
2023-03-02T10:23:11.572Z,23.10
2023-03-02T10:25:47.237Z,25.58
2023-03-02T10:28:20.015Z,20.45
2023-03-02T10:30:51.943Z,23.85
2023-03-02T10:33:23.216Z,34.15
2023-03-02T10:35:54.085Z,22.90
2023-03-02T10:38:23.756Z,23.00
2023-03-02T10:40:58.232Z,19.35
2023-03-02T10:43:31.405Z,23.02
2023-03-02T10:46:01.331Z,25.85
2023-03-02T10:48:31.054Z,24.60
2023-03-02T10:51:00.427Z,27.85
2023-03-02T10:53:29.123Z,20.67
2023-03-02T10:55:57.242Z,24.40
2023-03-02T10:58:30.743Z,21.08
2023-03-02T11:01:00.755Z,22.17
2023-03-02T11:03:30.500Z,25.35
2023-03-02T11:06:00.445Z,23.77
2023-03-02T11:08:31.666Z,18.50
2023-03-02T11:11:01.777Z,23.52
2023-03-02T11:13:32.478Z,17.77
2023-03-02T11:16:01.742Z,29.58
2023-03-02T11:18:35.595Z,19.30
2023-03-02T11:21:06.582Z,20.98
2023-03-02T11:23:44.741Z,18.23
2023-03-02T11:26:19.324Z,20.88
2023-03-02T11:28:52.822Z,68.85
2023-03-02T11:31:30.922Z,87.65
2023-03-02T11:34:18.014Z,36.15
2023-03-02T11:36:57.416Z,24.02
2023-03-02T11:39:32.703Z,18.00
2023-03-02T11:42:00.793Z,21.90
2023-03-02T11:44:29.729Z,17.02
2023-03-02T11:47:01.710Z,18.40
2023-03-02T11:49:38.797Z,18.35
2023-03-02T11:52:17.117Z,20.30
2023-03-02T11:54:47.718Z,19.73
2023-03-02T11:57:22.079Z,20.15
2023-03-02T11:59:51.651Z,18.75
2023-03-02T12:02:20.336Z,17.45
2023-03-02T12:04:50.386Z,24.58
2023-03-02T12:07:22.883Z,14.95
2023-03-02T12:10:06.483Z,21.23
2023-03-02T12:12:44.082Z,16.48
2023-03-02T12:15:38.208Z,16.77
2023-03-02T12:18:29.016Z,21.77
2023-03-02T12:21:03.114Z,21.95
2023-03-02T12:23:32.245Z,17.58
2023-03-02T12:26:06.922Z,21.80
2023-03-02T12:28:36.543Z,19.60
2023-03-02T12:31:11.880Z,19.20
2023-03-02T12:33:49.107Z,20.92
2023-03-02T12:36:24.429Z,21.27
2023-03-02T12:39:04.902Z,15.90
2023-03-02T12:41:59.475Z,20.50
2023-03-02T12:44:43.900Z,12.80
2023-03-02T12:47:16.542Z,14.18
2023-03-02T12:49:52.054Z,13.63
2023-03-02T12:52:24.137Z,14.38
2023-03-02T12:55:01.923Z,13.02
2023-03-02T12:57:30.209Z,16.83
2023-03-02T13:00:01.100Z,14.27
2023-03-02T13:02:30.355Z,14.55
2023-03-02T13:05:00.586Z,13.43
2023-03-02T13:07:36.230Z,15.88
2023-03-02T13:10:09.479Z,15.52
2023-03-02T13:12:38.427Z,19.85
2023-03-02T13:15:16.326Z,15.05
2023-03-02T13:17:45.142Z,17.60
2023-03-02T13:20:15.781Z,14.57
2023-03-02T13:22:45.177Z,17.50
2023-03-02T13:25:24.540Z,14.30
2023-03-02T13:27:57.628Z,15.23
2023-03-02T13:30:29.272Z,16.67
2023-03-02T13:33:02.797Z,15.02
2023-03-02T13:35:32.523Z,13.50
2023-03-02T13:38:05.765Z,12.60
2023-03-02T13:40:36.091Z,15.55
2023-03-02T13:43:08.639Z,15.02
2023-03-02T13:45:37.012Z,12.73
2023-03-02T13:48:15.694Z,16.35
2023-03-02T13:50:53.607Z,13.13
2023-03-02T13:53:24.357Z,14.98
2023-03-02T13:55:54.077Z,13.80
2023-03-02T13:58:23.947Z,12.60
2023-03-02T14:00:52.489Z,13.77
2023-03-02T14:03:26.515Z,10.73
2023-03-02T14:05:55.462Z,13.90
2023-03-02T14:08:25.132Z,11.50
2023-03-02T14:10:57.201Z,11.68
2023-03-02T14:13:27.741Z,15.77
2023-03-02T14:15:56.317Z,14.90
2023-03-02T14:18:32.077Z,10.52
2023-03-02T14:21:00.166Z,11.30
2023-03-02T14:23:29.651Z,13.70
2023-03-02T14:25:58.281Z,12.77
2023-03-02T14:28:29.077Z,13.60
2023-03-02T14:30:58.881Z,14.52
2023-03-02T14:33:27.438Z,15.75
2023-03-02T14:35:57.814Z,13.93
2023-03-02T14:38:28.334Z,11.73
2023-03-02T14:40:58.280Z,15.88
2023-03-02T14:43:27.068Z,12.02
2023-03-02T14:45:55.077Z,15.52
2023-03-02T14:48:22.977Z,14.68
2023-03-02T14:50:52.503Z,15.77
2023-03-02T14:53:30.680Z,16.25
2023-03-02T14:56:00.791Z,11.35
2023-03-02T14:58:32.354Z,15.32
2023-03-02T15:03:29.411Z,12.38
2023-03-02T15:06:02.116Z,11.05
2023-03-02T15:08:30.782Z,13.30
2023-03-02T15:11:00.637Z,15.73
2023-03-02T15:13:28.528Z,12.18
2023-03-02T15:15:56.543Z,16.85
2023-03-02T15:18:24.392Z,20.70
2023-03-02T15:20:52.225Z,15.52
2023-03-02T15:23:20.277Z,14.60
2023-03-02T15:25:48.341Z,19.58
2023-03-02T15:28:18.969Z,15.52
2023-03-02T15:30:47.532Z,17.25
2023-03-02T15:33:15.752Z,18.35
2023-03-02T15:35:44.363Z,15.68
2023-03-02T15:38:12.374Z,16.77
2023-03-02T15:40:40.306Z,14.88
2023-03-02T15:43:08.195Z,10.95
2023-03-02T15:45:37.742Z,16.92
2023-03-02T15:48:06.010Z,15.75
2023-03-02T15:50:33.956Z,13.57
2023-03-02T15:53:01.817Z,14.75
2023-03-02T15:55:29.713Z,14.38
2023-03-02T15:57:59.818Z,15.40
2023-03-02T16:00:28.245Z,19.08
2023-03-02T21:14:21.211Z,49.30
2023-03-02T21:16:49.069Z,48.55
2023-03-02T21:19:18.838Z,53.15
2023-03-02T21:21:47.036Z,47.80
2023-03-02T21:24:17.585Z,47.88
2023-03-02T21:26:45.934Z,47.13
2023-03-02T21:29:14.507Z,52.10
2023-03-02T21:31:44.819Z,48.63
2023-03-02T21:34:13.719Z,49.92
2023-03-02T21:36:42.018Z,55.60
2023-03-02T21:39:11.738Z,50.78
2023-03-02T21:41:40.219Z,50.60
2023-03-02T21:44:08.292Z,52.28
2023-03-02T21:46:38.171Z,47.85
2023-03-02T21:49:07.672Z,53.00
2023-03-02T21:51:35.657Z,54.20
2023-03-02T21:54:03.478Z,50.97
2023-03-02T21:56:31.283Z,48.63
2023-03-02T21:58:59.256Z,52.38
2023-03-02T22:01:27.526Z,45.00
2023-03-02T22:03:55.547Z,50.75
2023-03-02T22:06:27.291Z,49.72
2023-03-02T22:08:55.646Z,50.03
2023-03-02T22:11:25.887Z,48.97
2023-03-02T22:13:55.953Z,50.70
2023-03-02T22:16:26.028Z,49.33
2023-03-02T22:18:56.069Z,49.20
2023-03-02T22:21:40.750Z,53.75
2023-03-02T22:24:18.817Z,55.05
2023-03-02T22:26:48.334Z,51.42
2023-03-02T22:29:18.824Z,56.22
2023-03-02T22:31:49.331Z,55.85
2023-03-02T22:34:21.493Z,48.25
2023-03-02T22:36:50.636Z,49.95
2023-03-02T22:39:27.941Z,55.25
